createdAt,value
2023-06-25T00:03:15.247Z,28.45
2023-06-25T00:08:14.140Z,28.33
2023-06-25T00:13:12.973Z,28.18
2023-06-25T00:18:11.795Z,28.07
2023-06-25T00:23:12.080Z,28.11
2023-06-25T00:28:10.912Z,28.05
2023-06-25T00:33:10.279Z,27.97
2023-06-25T00:38:14.991Z,27.86
2023-06-25T00:43:16.689Z,27.90
2023-06-25T00:48:15.762Z,27.81
2023-06-25T00:53:16.395Z,27.89
2023-06-25T00:58:15.126Z,27.61
2023-06-25T01:03:25.553Z,27.31
2023-06-25T01:08:30.230Z,27.27
2023-06-25T01:13:29.144Z,27.17
2023-06-25T01:18:28.082Z,27.14
2023-06-25T01:23:30.916Z,27.28
2023-06-25T01:28:29.814Z,27.28
2023-06-25T01:33:28.624Z,27.33
2023-06-25T01:38:31.267Z,27.14
2023-06-25T01:43:31.924Z,27.06
2023-06-25T01:48:32.564Z,27.06
2023-06-25T01:53:32.858Z,27.04
2023-06-25T01:58:31.746Z,27.06
2023-06-25T02:03:30.746Z,27.06
2023-06-25T02:08:29.533Z,26.84
2023-06-25T02:13:29.829Z,26.77
2023-06-25T02:18:29.555Z,26.63
2023-06-25T02:23:28.509Z,26.52
2023-06-25T02:28:29.193Z,26.65
2023-06-25T02:33:28.016Z,26.78
2023-06-25T02:38:26.887Z,26.84
2023-06-25T02:43:25.791Z,26.85
2023-06-25T02:48:26.449Z,26.87
2023-06-25T02:53:25.285Z,26.74
2023-06-25T02:58:27.038Z,26.47
2023-06-25T03:03:27.307Z,26.58
2023-06-25T03:08:26.548Z,26.67
2023-06-25T03:13:25.775Z,26.75
2023-06-25T03:18:26.646Z,26.78
2023-06-25T03:23:26.637Z,26.82
2023-06-25T03:28:26.280Z,26.73
2023-06-25T03:33:27.384Z,26.79
2023-06-25T03:38:26.174Z,26.80
2023-06-25T03:43:28.880Z,26.77
2023-06-25T03:48:29.773Z,26.77
2023-06-25T03:53:29.098Z,26.81
2023-06-25T03:58:28.004Z,26.82
2023-06-25T04:03:26.960Z,26.79
2023-06-25T04:08:27.065Z,26.79
2023-06-25T04:13:26.107Z,26.85
2023-06-25T04:18:24.978Z,26.78
2023-06-25T04:23:23.722Z,26.79
2023-06-25T04:28:24.188Z,26.85
2023-06-25T04:33:23.156Z,26.93
2023-06-25T04:38:22.027Z,26.89
2023-06-25T04:43:21.675Z,26.87
2023-06-25T04:48:22.499Z,26.77
2023-06-25T04:53:21.395Z,26.79
2023-06-25T04:58:20.171Z,26.91
2023-06-25T05:03:18.983Z,27.01
2023-06-25T05:08:19.364Z,27.10
2023-06-25T05:13:18.266Z,27.18
2023-06-25T05:18:17.256Z,27.05
2023-06-25T05:23:16.069Z,27.17
2023-06-25T05:28:16.442Z,27.25
2023-06-25T05:33:15.280Z,27.01
2023-06-25T05:38:14.106Z,26.95
2023-06-25T05:43:13.255Z,26.98
2023-06-25T05:48:13.625Z,27.09
2023-06-25T05:53:12.432Z,27.20
2023-06-25T05:58:11.278Z,27.10
2023-06-25T06:03:10.196Z,27.33
2023-06-25T06:08:10.426Z,27.41
2023-06-25T06:13:12.464Z,27.43
2023-06-25T06:18:11.433Z,27.65
2023-06-25T06:23:12.964Z,27.46
2023-06-25T06:28:11.771Z,27.74
2023-06-25T06:33:12.363Z,27.90
2023-06-25T06:38:15.249Z,27.97
2023-06-25T06:43:14.097Z,27.98
2023-06-25T06:48:13.056Z,28.22
2023-06-25T06:53:13.305Z,28.36
2023-06-25T06:58:12.114Z,28.47
2023-06-25T07:03:10.883Z,28.65
2023-06-25T07:08:09.844Z,28.76
2023-06-25T07:13:11.324Z,29.01
2023-06-25T07:18:11.428Z,29.17
2023-06-25T07:23:10.515Z,29.26
2023-06-25T07:28:13.923Z,29.48
2023-06-25T07:33:12.753Z,29.74
2023-06-25T07:38:11.940Z,29.87
2023-06-25T07:43:13.184Z,30.13
2023-06-25T07:48:12.070Z,30.58
2023-06-25T07:53:10.818Z,30.82
2023-06-25T07:58:10.141Z,30.95
2023-06-25T08:03:17.847Z,31.22
2023-06-25T08:08:19.815Z,31.54
2023-06-25T08:13:18.464Z,31.71
2023-06-25T08:18:18.812Z,31.82
2023-06-25T08:23:20.833Z,31.83
2023-06-25T08:28:19.746Z,32.09
2023-06-25T08:33:24.934Z,32.43
2023-06-25T08:38:23.819Z,32.35
2023-06-25T08:43:22.803Z,32.67
2023-06-25T08:48:25.911Z,32.80
2023-06-25T08:53:28.432Z,32.96
2023-06-25T08:58:30.567Z,33.29
2023-06-25T09:03:30.799Z,33.65
2023-06-25T09:08:30.604Z,33.58
2023-06-25T09:13:30.741Z,34.04
2023-06-25T09:18:31.864Z,34.70
2023-06-25T09:23:33.439Z,35.24
2023-06-25T09:28:32.474Z,35.07
2023-06-25T09:33:35.553Z,35.19
2023-06-25T09:38:35.100Z,35.41
2023-06-25T09:43:34.562Z,35.72
2023-06-25T09:48:35.660Z,35.86
2023-06-25T09:53:39.125Z,36.14
2023-06-25T09:58:39.192Z,36.77
2023-06-25T10:03:40.260Z,37.06
2023-06-25T10:08:41.367Z,37.14
2023-06-25T10:13:42.064Z,37.30
2023-06-25T10:18:44.381Z,37.07
2023-06-25T10:23:43.171Z,37.20
2023-06-25T10:28:43.210Z,37.02
2023-06-25T10:33:44.118Z,36.98
2023-06-25T10:38:45.464Z,36.90
2023-06-25T10:43:46.043Z,37.11
2023-06-25T10:48:48.527Z,37.35
2023-06-25T10:53:47.480Z,37.35
2023-06-25T10:58:46.448Z,36.90
2023-06-25T11:03:45.552Z,36.96
2023-06-25T11:08:46.609Z,37.74
2023-06-25T11:13:45.338Z,38.46
2023-06-25T11:18:44.415Z,39.38
2023-06-25T11:23:46.413Z,40.14
2023-06-25T11:28:45.231Z,40.76
2023-06-25T11:33:43.997Z,41.15
2023-06-25T11:38:47.454Z,41.73
2023-06-25T11:43:46.210Z,42.01
2023-06-25T11:48:49.741Z,42.32
2023-06-25T11:53:49.870Z,41.46
2023-06-25T11:58:48.688Z,41.27
2023-06-25T12:03:47.556Z,41.55
2023-06-25T12:08:46.461Z,41.48
2023-06-25T12:13:46.741Z,42.31
2023-06-25T12:18:45.577Z,43.51
2023-06-25T12:23:44.387Z,44.65
2023-06-25T12:28:43.234Z,44.16
2023-06-25T12:33:43.500Z,44.42
2023-06-25T12:38:42.302Z,44.79
2023-06-25T12:43:41.180Z,44.79
2023-06-25T12:48:39.963Z,44.90
2023-06-25T12:53:40.225Z,44.66
2023-06-25T12:58:39.033Z,43.94
2023-06-25T13:03:40.615Z,42.56
2023-06-25T13:08:40.975Z,41.39
2023-06-25T13:13:42.914Z,40.01
2023-06-25T13:18:42.644Z,38.64
2023-06-25T13:23:42.818Z,36.92
2023-06-25T13:28:41.768Z,35.54
2023-06-25T13:33:40.536Z,33.91
2023-06-25T13:38:40.792Z,32.77
2023-06-25T13:43:40.873Z,32.47
2023-06-25T13:48:39.646Z,31.35
2023-06-25T13:53:38.595Z,29.15
2023-06-25T13:58:38.402Z,28.05
2023-06-25T14:03:38.832Z,27.37
2023-06-25T14:08:37.591Z,26.73
2023-06-25T14:13:37.070Z,26.62
2023-06-25T14:18:35.842Z,26.81
2023-06-25T14:23:35.954Z,26.58
2023-06-25T14:28:36.889Z,26.49
2023-06-25T14:33:36.503Z,26.50
2023-06-25T14:38:37.461Z,26.70
2023-06-25T14:43:36.626Z,26.78
2023-06-25T14:48:35.624Z,26.91
2023-06-25T14:53:37.370Z,26.98
2023-06-25T14:58:37.502Z,26.82
2023-06-25T15:03:36.427Z,26.74
2023-06-25T15:08:35.438Z,26.48
2023-06-25T15:13:34.287Z,26.34
2023-06-25T15:18:37.071Z,26.32
2023-06-25T15:23:35.997Z,26.16
2023-06-25T15:28:34.807Z,26.06
2023-06-25T15:33:35.015Z,26.17
2023-06-25T15:38:33.856Z,26.25
2023-06-25T15:43:32.808Z,26.41
2023-06-25T15:48:31.834Z,26.40
2023-06-25T15:53:32.044Z,26.34
2023-06-25T15:58:30.793Z,26.44
2023-06-25T16:03:30.542Z,26.40
2023-06-25T16:08:29.788Z,26.22
2023-06-25T16:13:30.135Z,26.05
2023-06-25T16:18:29.038Z,25.96
2023-06-25T16:23:27.936Z,25.86
2023-06-25T16:28:26.700Z,25.93
2023-06-25T16:33:26.885Z,25.97
2023-06-25T16:38:25.784Z,26.07
2023-06-25T16:43:24.587Z,26.13
2023-06-25T16:48:23.612Z,26.02
2023-06-25T16:53:23.890Z,26.02
2023-06-25T16:58:22.848Z,26.05
2023-06-25T17:03:22.016Z,26.23
2023-06-25T17:08:20.854Z,26.20
2023-06-25T17:13:21.147Z,26.58
2023-06-25T17:18:20.086Z,27.03
2023-06-25T17:23:20.776Z,27.27
2023-06-25T17:28:21.098Z,27.41
2023-06-25T17:33:19.920Z,27.53
2023-06-25T17:38:18.672Z,27.63
2023-06-25T17:43:21.140Z,27.71
2023-06-25T17:48:35.819Z,27.73
2023-06-25T17:53:36.648Z,27.63
2023-06-25T17:58:36.641Z,27.62
2023-06-25T18:03:38.153Z,27.58
2023-06-25T18:08:37.162Z,27.43
2023-06-25T18:13:35.928Z,27.35
2023-06-25T18:18:39.551Z,27.27
2023-06-25T18:23:38.636Z,27.29
2023-06-25T18:28:37.560Z,27.24
2023-06-25T18:33:37.802Z,27.20
2023-06-25T18:38:36.735Z,26.80
2023-06-25T18:43:35.570Z,26.39
2023-06-25T18:48:34.621Z,26.07
2023-06-25T18:53:34.868Z,26.04
2023-06-25T18:58:33.763Z,26.00
2023-06-25T19:03:32.758Z,25.98
2023-06-25T19:08:32.013Z,26.01
2023-06-25T19:13:32.237Z,26.08
2023-06-25T19:18:31.932Z,26.11
2023-06-25T19:23:30.894Z,26.15
2023-06-25T19:28:31.208Z,26.12
2023-06-25T19:33:30.100Z,26.07
2023-06-25T19:38:29.039Z,25.98
2023-06-25T19:43:29.082Z,25.95
2023-06-25T19:48:29.988Z,25.93
2023-06-25T19:53:30.236Z,25.92
2023-06-25T19:58:29.346Z,25.90
2023-06-25T20:03:32.271Z,25.95
2023-06-25T20:08:31.692Z,25.89
2023-06-25T20:13:33.380Z,25.85
2023-06-25T20:18:33.779Z,25.88
2023-06-25T20:23:33.554Z,25.87
2023-06-25T20:28:35.278Z,25.82
2023-06-25T20:33:35.447Z,25.74
2023-06-25T20:38:36.772Z,25.56
2023-06-25T20:43:36.710Z,25.32
2023-06-25T20:48:36.942Z,25.25
2023-06-25T20:53:36.744Z,25.25
2023-06-25T20:58:40.484Z,25.30
2023-06-25T21:03:40.640Z,25.28
2023-06-25T21:08:39.397Z,25.21
2023-06-25T21:13:38.208Z,25.20
2023-06-25T21:18:36.965Z,25.19
2023-06-25T21:23:37.080Z,25.20
2023-06-25T21:28:35.826Z,25.17
2023-06-25T21:33:34.650Z,25.15
2023-06-25T21:38:33.410Z,25.13
2023-06-25T21:43:34.236Z,25.09
2023-06-25T21:48:33.099Z,24.96
2023-06-25T21:53:35.595Z,24.87
2023-06-25T21:58:35.886Z,24.81
2023-06-25T22:03:36.377Z,24.85
2023-06-25T22:08:35.159Z,24.86
2023-06-25T22:13:35.550Z,24.87
2023-06-25T22:18:38.101Z,24.87
2023-06-25T22:23:36.964Z,24.78
2023-06-25T22:28:37.042Z,24.72
2023-06-25T22:33:35.796Z,24.65
2023-06-25T22:38:34.637Z,24.66
2023-06-25T22:43:33.453Z,24.62
2023-06-25T22:48:33.641Z,24.61
2023-06-25T22:53:32.543Z,24.59
2023-06-25T22:58:31.252Z,24.65
2023-06-25T23:03:30.127Z,24.63
2023-06-25T23:08:30.247Z,24.61
2023-06-25T23:13:28.981Z,24.60
2023-06-25T23:18:27.837Z,24.52
2023-06-25T23:23:26.764Z,24.55
2023-06-25T23:28:27.469Z,24.47
2023-06-25T23:33:30.349Z,24.13
2023-06-25T23:38:29.153Z,24.14
2023-06-25T23:43:29.322Z,24.13
2023-06-25T23:48:29.879Z,24.14
2023-06-25T23:53:29.888Z,24.09
2023-06-25T23:58:30.032Z,23.96
